Time;durP1;ratioP1;P1;durP2;ratioP2;P2;SDS_P1;SDS_P2;PMS_P1;PMS_P2;Temp;Humidity;BMP_temperature;BMP_pressure;BME280_temperature;BME280_humidity;BME280_pressure;Samples;Min_cycle;Max_cycle;Signal;HPM_P1;HPM_P2
2023/08/30 00:01:11;;;;;;;;;5.75;3.75;;;;;16.38;66.12;98600.63;5073763;28;47003;-70
2023/08/30 00:03:37;;;;;;;;;3.75;3.75;;;;;16.34;66.09;98592.97;5074271;28;45367;-70
2023/08/30 00:06:06;;;;;;;;;4.50;3.75;;;;;16.29;66.73;98584.47;5075533;28;45535;-70
2023/08/30 00:08:32;;;;;;;;;3.75;3.75;;;;;16.25;66.61;98596.31;5075675;27;45422;-70
2023/08/30 00:10:58;;;;;;;;;4.20;4.20;;;;;16.23;66.61;98593.75;5075342;28;46300;-70
2023/08/30 00:13:25;;;;;;;;;2.75;2.75;;;;;16.22;66.51;98592.03;5075086;27;45328;-70
2023/08/30 00:15:51;;;;;;;;;4.20;4.00;;;;;16.23;65.83;98590.25;5074663;27;45407;-70
2023/08/30 00:18:18;;;;;;;;;4.25;4.25;;;;;16.26;66.65;98596.16;5073811;28;45446;-70
2023/08/30 00:20:44;;;;;;;;;3.80;3.80;;;;;16.32;66.98;98597.53;5075085;27;45458;-70
2023/08/30 00:23:09;;;;;;;;;2.75;2.75;;;;;16.36;66.57;98599.03;5075275;28;45416;-70
2023/08/30 00:25:35;;;;;;;;;5.25;4.00;;;;;16.38;67.00;98592.66;5075359;28;45532;-70
2023/08/30 00:28:00;;;;;;;;;3.25;3.00;;;;;16.39;66.96;98594.34;5073634;28;45598;-70
2023/08/30 00:30:25;;;;;;;;;4.50;3.50;;;;;16.42;67.30;98599.41;5074383;27;45415;-70
2023/08/30 00:32:51;;;;;;;;;4.75;3.75;;;;;16.46;66.57;98588.56;5075036;28;45450;-70
2023/08/30 00:35:16;;;;;;;;;1.75;1.75;;;;;16.49;67.29;98589.19;5074871;28;45478;-70
2023/08/30 00:37:42;;;;;;;;;3.75;3.00;;;;;16.51;66.67;98581.97;5075211;28;45395;-70
2023/08/30 00:40:07;;;;;;;;;3.00;3.00;;;;;16.54;66.78;98584.41;5073402;28;46502;-70
2023/08/30 00:42:33;;;;;;;;;1.75;1.75;;;;;16.53;66.10;98579.19;5074653;28;45431;-70
2023/08/30 00:44:58;;;;;;;;;4.00;4.00;;;;;16.50;67.09;98571.41;5074536;28;45386;-70
2023/08/30 00:47:24;;;;;;;;;4.50;3.50;;;;;16.48;66.77;98581.31;5073344;28;45372;-70
2023/08/30 00:49:49;;;;;;;;;4.25;4.25;;;;;16.45;67.09;98577.06;5074323;28;46196;-70
2023/08/30 00:52:15;;;;;;;;;3.75;3.75;;;;;16.44;67.12;98582.50;5074785;28;45400;-70
2023/08/30 00:54:41;;;;;;;;;4.40;4.40;;;;;16.41;67.48;98586.25;5075138;28;45452;-70
2023/08/30 00:57:07;;;;;;;;;15.25;11.75;;;;;16.34;67.79;98577.00;5074821;28;45431;-70
2023/08/30 00:59:33;;;;;;;;;6.00;6.00;;;;;16.27;67.68;98576.59;5074538;28;45647;-70
2023/08/30 01:02:00;;;;;;;;;11.20;9.60;;;;;16.23;67.81;98575.13;5073958;28;45481;-70
2023/08/30 01:04:27;;;;;;;;;8.75;8.00;;;;;16.19;67.67;98572.78;5073976;28;45461;-70
2023/08/30 01:06:52;;;;;;;;;8.50;8.50;;;;;16.12;68.42;98572.38;5074796;28;45483;-70
2023/08/30 01:09:18;;;;;;;;;5.00;4.50;;;;;16.04;68.60;98572.94;5074390;28;46466;-70
2023/08/30 01:11:53;;;;;;;;;6.25;5.25;;;;;16.02;68.53;98569.53;5074612;28;45379;-70
2023/08/30 01:14:25;;;;;;;;;7.00;6.00;;;;;16.04;68.67;98572.06;5074860;28;45438;-70
2023/08/30 01:16:51;;;;;;;;;9.00;4.75;;;;;16.06;68.42;98572.81;5077575;28;45465;-70
2023/08/30 01:19:22;;;;;;;;;3.60;3.00;;;;;16.05;68.59;98574.63;5078200;28;45407;-70
2023/08/30 01:21:59;;;;;;;;;6.00;4.60;;;;;16.03;68.57;98565.91;5078255;28;45563;-70
2023/08/30 01:24:44;;;;;;;;;7.00;6.20;;;;;15.98;69.11;98568.03;5078174;28;45305;-70
2023/08/30 01:27:13;;;;;;;;;8.00;5.75;;;;;15.95;69.04;98557.63;5077790;28;45430;-70
2023/08/30 01:29:43;;;;;;;;;6.20;6.20;;;;;15.97;69.26;98565.47;5077557;28;46313;-70
2023/08/30 01:32:09;;;;;;;;;6.60;5.20;;;;;15.96;69.46;98561.13;5078048;28;45411;-70
2023/08/30 01:34:37;;;;;;;;;7.50;7.50;;;;;15.97;69.27;98563.69;5076092;28;45433;-70
2023/08/30 01:37:06;;;;;;;;;6.25;6.25;;;;;15.97;68.93;98568.16;5077787;27;45407;-70
2023/08/30 01:39:32;;;;;;;;;5.25;5.25;;;;;15.93;69.26;98556.88;5076205;28;47794;-70
2023/08/30 01:42:00;;;;;;;;;7.00;5.80;;;;;15.94;69.44;98563.03;5077428;28;45367;-70
2023/08/30 01:44:30;;;;;;;;;8.25;8.25;;;;;15.93;69.32;98556.03;5077842;28;45481;-70
2023/08/30 01:46:57;;;;;;;;;6.75;6.75;;;;;15.91;69.44;98552.66;5076958;28;45314;-70
2023/08/30 01:49:24;;;;;;;;;8.00;7.25;;;;;15.88;69.78;98551.06;5077489;28;45519;-70
2023/08/30 01:51:51;;;;;;;;;8.20;6.80;;;;;15.86;70.68;98560.09;5077307;28;45447;-69
2023/08/30 01:54:18;;;;;;;;;6.00;6.00;;;;;15.81;70.31;98557.75;5075953;28;45395;-70
2023/08/30 01:56:45;;;;;;;;;7.00;6.50;;;;;15.80;70.13;98568.47;5077433;28;45468;-70
2023/08/30 01:59:10;;;;;;;;;5.80;5.80;;;;;15.77;70.87;98564.22;5077461;28;45682;-69
2023/08/30 02:01:36;;;;;;;;;5.00;4.50;;;;;15.72;70.65;98571.69;5077232;28;45344;-70
2023/08/30 02:04:01;;;;;;;;;3.00;3.00;;;;;15.67;70.41;98564.03;5076927;28;45700;-70
2023/08/30 02:06:35;;;;;;;;;2.75;2.75;;;;;15.61;70.81;98555.63;5077048;28;45499;-70
2023/08/30 02:09:09;;;;;;;;;5.00;5.00;;;;;15.60;70.75;98565.41;5077242;28;45423;-70
2023/08/30 02:11:36;;;;;;;;;4.20;4.20;;;;;15.57;71.06;98562.97;5077259;28;45392;-70
2023/08/30 02:14:06;;;;;;;;;3.00;2.60;;;;;15.55;71.27;98564.00;5077327;28;45585;-70
2023/08/30 02:16:33;;;;;;;;;3.00;3.00;;;;;15.53;70.55;98553.47;5076839;28;45424;-70
2023/08/30 02:18:59;;;;;;;;;3.40;3.00;;;;;15.48;70.47;98560.06;5076997;28;45456;-70
2023/08/30 02:21:24;;;;;;;;;5.00;5.00;;;;;15.39;70.84;98556.25;5077102;28;45412;-70
2023/08/30 02:23:53;;;;;;;;;4.00;3.25;;;;;15.32;71.49;98563.78;5077144;28;45300;-70
2023/08/30 02:26:19;;;;;;;;;6.25;6.25;;;;;15.29;71.30;98563.97;5075946;28;45515;-70
2023/08/30 02:28:45;;;;;;;;;5.25;5.25;;;;;15.30;71.46;98562.16;5076504;28;46276;-70
2023/08/30 02:31:11;;;;;;;;;5.00;5.00;;;;;15.30;71.88;98556.84;5076524;28;45431;-70
2023/08/30 02:33:37;;;;;;;;;4.00;4.00;;;;;15.27;72.30;98555.25;5077216;28;45778;-70
2023/08/30 02:36:03;;;;;;;;;4.00;4.00;;;;;15.26;72.87;98553.56;5076504;28;45569;-70
2023/08/30 02:38:28;;;;;;;;;5.00;5.00;;;;;15.21;72.80;98557.50;5076661;28;45513;-69
2023/08/30 02:40:54;;;;;;;;;3.00;3.00;;;;;15.16;72.13;98555.16;5076514;28;45336;-70
2023/08/30 02:43:19;;;;;;;;;3.75;3.75;;;;;15.13;72.36;98560.66;5076429;28;45847;-70
2023/08/30 02:45:44;;;;;;;;;5.00;5.00;;;;;15.13;72.22;98557.16;5074757;28;45430;-70
2023/08/30 02:48:10;;;;;;;;;4.50;3.75;;;;;15.12;72.66;98571.38;5076195;28;45487;-69
2023/08/30 02:50:35;;;;;;;;;4.50;4.50;;;;;15.06;73.03;98566.50;5076482;28;45401;-70
2023/08/30 02:53:00;;;;;;;;;4.00;4.00;;;;;15.00;72.72;98565.94;5076541;28;45487;-70
2023/08/30 02:55:26;;;;;;;;;6.25;6.25;;;;;15.02;72.98;98568.50;5076250;28;45302;-70
2023/08/30 02:57:51;;;;;;;;;4.25;4.25;;;;;15.05;72.80;98573.63;5076045;28;46177;-70
2023/08/30 03:00:16;;;;;;;;;4.75;4.75;;;;;15.06;72.86;98570.00;5075832;28;45364;-70
2023/08/30 03:02:42;;;;;;;;;6.50;4.75;;;;;15.05;73.09;98565.66;5075480;28;45452;-70
2023/08/30 03:05:07;;;;;;;;;4.00;4.00;;;;;15.00;72.52;98565.09;5076594;28;45304;-70
2023/08/30 03:07:33;;;;;;;;;5.25;4.50;;;;;14.97;73.31;98568.81;5075852;28;46069;-69
2023/08/30 03:09:58;;;;;;;;;4.00;4.00;;;;;14.96;73.57;98574.22;5076384;28;45566;-70
2023/08/30 03:12:24;;;;;;;;;4.00;4.00;;;;;14.94;73.12;98569.00;5076370;28;45442;-70
2023/08/30 03:14:49;;;;;;;;;3.75;3.75;;;;;14.96;73.04;98566.25;5075591;27;45445;-70
2023/08/30 03:17:15;;;;;;;;;5.25;5.00;;;;;14.98;73.54;98565.19;5075755;28;46596;-69
2023/08/30 03:19:40;;;;;;;;;4.00;4.00;;;;;14.98;73.54;98567.00;5076022;28;45442;-70
2023/08/30 03:22:06;;;;;;;;;6.00;5.00;;;;;14.95;73.91;98557.44;5076103;28;45514;-70
2023/08/30 03:24:31;;;;;;;;;7.00;6.00;;;;;14.95;73.90;98559.22;5076178;28;45416;-70
2023/08/30 03:26:56;;;;;;;;;4.75;3.50;;;;;14.97;73.89;98560.00;5076285;28;45438;-70
2023/08/30 03:29:22;;;;;;;;;4.00;3.75;;;;;14.98;73.71;98564.34;5076266;28;45431;-70
2023/08/30 03:31:47;;;;;;;;;4.00;4.00;;;;;14.98;73.91;98562.53;5075871;27;45661;-70
2023/08/30 03:34:13;;;;;;;;;7.00;4.00;;;;;14.98;73.70;98561.69;5075781;28;45336;-70
2023/08/30 03:36:39;;;;;;;;;5.50;5.00;;;;;15.00;73.85;98570.41;5075671;27;46017;-70
2023/08/30 03:39:05;;;;;;;;;4.40;4.40;;;;;15.01;73.25;98567.66;5075553;27;45459;-70
2023/08/30 03:41:30;;;;;;;;;4.25;4.25;;;;;15.02;73.42;98566.69;5075694;27;45451;-69
2023/08/30 03:43:55;;;;;;;;;4.75;4.00;;;;;15.01;73.40;98567.66;5075647;28;45432;-70
2023/08/30 03:46:21;;;;;;;;;4.75;4.75;;;;;15.04;73.97;98576.38;5075019;28;45645;-70
2023/08/30 03:48:46;;;;;;;;;4.00;4.00;;;;;14.99;74.13;98574.88;5075443;28;45349;-70
2023/08/30 03:51:12;;;;;;;;;5.75;5.00;;;;;14.95;74.04;98575.16;5075716;28;45848;-70
2023/08/30 03:53:38;;;;;;;;;4.00;3.00;;;;;14.95;73.56;98577.81;5073637;28;45729;-70
2023/08/30 03:56:04;;;;;;;;;4.00;4.00;;;;;14.94;74.03;98582.28;5075397;28;46568;-70
2023/08/30 03:58:29;;;;;;;;;6.50;5.50;;;;;14.93;74.72;98579.72;5075368;28;45485;-70
2023/08/30 04:00:56;;;;;;;;;2.75;2.75;;;;;14.90;74.13;98582.59;5075233;28;45491;-70
2023/08/30 04:03:21;;;;;;;;;4.75;4.00;;;;;14.86;74.49;98583.75;5075254;28;45554;-70
2023/08/30 04:05:47;;;;;;;;;5.25;5.00;;;;;14.76;74.42;98588.78;5075288;27;45579;-70
2023/08/30 04:08:12;;;;;;;;;5.25;5.25;;;;;14.71;74.19;98584.75;5075504;28;45333;-70
2023/08/30 04:10:39;;;;;;;;;4.00;4.00;;;;;14.71;74.53;98590.06;5075355;28;45419;-69
2023/08/30 04:13:05;;;;;;;;;6.75;6.00;;;;;14.69;75.22;98587.50;5075046;28;45514;-69
2023/08/30 04:15:35;;;;;;;;;4.60;3.80;;;;;14.59;75.28;98586.38;5074729;28;45468;-70
2023/08/30 04:18:02;;;;;;;;;5.20;5.00;;;;;14.56;75.31;98594.56;5075116;28;45456;-69
2023/08/30 04:20:27;;;;;;;;;6.75;5.75;;;;;14.55;75.54;98590.22;5075388;28;45508;-69
2023/08/30 04:22:54;;;;;;;;;8.75;6.75;;;;;14.54;76.58;98588.50;5075287;28;45475;-70
2023/08/30 04:25:20;;;;;;;;;6.00;5.00;;;;;14.53;76.09;98600.06;5075140;28;46455;-70
2023/08/30 04:27:45;;;;;;;;;6.00;6.00;;;;;14.47;76.56;98606.59;5075098;28;45374;-70
2023/08/30 04:30:12;;;;;;;;;5.00;5.00;;;;;14.40;76.27;98607.09;5074756;28;45629;-69
2023/08/30 04:32:37;;;;;;;;;5.75;5.75;;;;;14.31;76.61;98612.00;5074834;28;45456;-70
2023/08/30 04:35:03;;;;;;;;;8.00;6.00;;;;;14.28;76.58;98604.25;5074137;28;46602;-70
2023/08/30 04:37:31;;;;;;;;;4.75;4.75;;;;;14.27;77.25;98610.50;5074837;27;45670;-70
2023/08/30 04:39:57;;;;;;;;;5.00;5.00;;;;;14.28;77.62;98606.88;5073356;28;45413;-70
2023/08/30 04:42:22;;;;;;;;;7.50;6.25;;;;;14.26;77.13;98605.28;5074870;28;45377;-70
2023/08/30 04:44:47;;;;;;;;;6.75;6.75;;;;;14.28;77.48;98614.00;5074442;28;45664;-70
2023/08/30 04:47:13;;;;;;;;;6.00;6.00;;;;;14.29;77.25;98616.56;5074613;28;45437;-69
2023/08/30 04:49:38;;;;;;;;;7.50;7.00;;;;;14.33;77.71;98611.91;5073880;28;45502;-69
2023/08/30 04:52:04;;;;;;;;;7.75;7.25;;;;;14.35;77.75;98604.72;5072417;28;45428;-69
2023/08/30 04:54:30;;;;;;;;;7.75;6.00;;;;;14.40;77.60;98609.72;5074021;28;45378;-69
2023/08/30 04:56:55;;;;;;;;;6.50;5.75;;;;;14.41;77.09;98609.63;5074106;28;45383;-70
2023/08/30 04:59:20;;;;;;;;;7.00;7.00;;;;;14.41;77.26;98604.34;5073946;28;45400;-69
2023/08/30 05:01:46;;;;;;;;;5.00;5.00;;;;;14.36;77.63;98609.06;5073974;28;45379;-69
2023/08/30 05:04:11;;;;;;;;;7.50;5.00;;;;;14.29;77.78;98611.25;5073861;28;45596;-69
2023/08/30 05:06:37;;;;;;;;;7.25;6.00;;;;;14.25;77.46;98612.38;5073845;28;45307;-69
2023/08/30 05:09:03;;;;;;;;;7.00;5.25;;;;;14.23;77.77;98611.66;5074036;28;45310;-69
2023/08/30 05:11:28;;;;;;;;;5.50;5.50;;;;;14.24;77.82;98617.81;5073685;28;45317;-69
2023/08/30 05:13:54;;;;;;;;;5.25;4.75;;;;;14.22;77.73;98617.91;5074178;28;46338;-69
2023/08/30 05:16:20;;;;;;;;;6.00;6.00;;;;;14.23;77.85;98611.66;5073396;28;45472;-69
2023/08/30 05:18:47;;;;;;;;;7.25;7.25;;;;;14.23;78.33;98611.66;5073793;28;45392;-70
2023/08/30 05:21:13;;;;;;;;;5.25;5.25;;;;;14.23;77.99;98614.31;5089812;27;45609;-69
2023/08/30 05:23:41;;;;;;;;;8.00;7.25;;;;;14.26;78.01;98616.75;5073552;28;45547;-68
2023/08/30 05:26:07;;;;;;;;;7.75;7.75;;;;;14.27;78.10;98615.78;5073949;28;45410;-69
2023/08/30 05:28:32;;;;;;;;;7.75;7.00;;;;;14.27;78.29;98621.09;5073410;28;45361;-69
2023/08/30 05:30:58;;;;;;;;;7.50;5.50;;;;;14.30;78.75;98622.72;5072811;28;45332;-69
2023/08/30 05:33:23;;;;;;;;;5.00;5.00;;;;;14.30;78.42;98618.25;5073614;28;46081;-69
2023/08/30 05:35:48;;;;;;;;;5.00;5.00;;;;;14.32;78.92;98616.38;5073328;28;45391;-69
2023/08/30 05:38:14;;;;;;;;;6.00;6.00;;;;;14.37;78.57;98624.03;5073698;28;45452;-69
2023/08/30 05:40:42;;;;;;;;;7.00;7.00;;;;;14.42;78.35;98629.06;5073550;28;45598;-69
2023/08/30 05:43:07;;;;;;;;;4.50;4.50;;;;;14.47;78.27;98619.00;5073876;28;45671;-69
2023/08/30 05:45:33;;;;;;;;;5.25;5.25;;;;;14.50;78.16;98617.03;5072616;28;45399;-70
2023/08/30 05:47:58;;;;;;;;;7.00;7.00;;;;;14.55;78.00;98622.03;5072601;28;45407;-69
2023/08/30 05:50:24;;;;;;;;;8.00;7.25;;;;;14.57;77.64;98623.66;5073383;28;45379;-69
2023/08/30 05:52:50;;;;;;;;;9.00;9.00;;;;;14.61;77.77;98624.28;5073267;28;46471;-69
2023/08/30 05:55:15;;;;;;;;;6.40;5.60;;;;;14.63;77.80;98627.69;5072894;28;45441;-69
2023/08/30 05:57:41;;;;;;;;;6.00;6.00;;;;;14.68;77.86;98622.94;5073638;28;46008;-70
2023/08/30 06:00:08;;;;;;;;;11.75;7.00;;;;;14.73;77.43;98622.66;5072935;28;45353;-69
2023/08/30 06:02:33;;;;;;;;;8.75;7.25;;;;;14.78;77.21;98623.19;5075214;28;46280;-69
2023/08/30 06:04:59;;;;;;;;;4.50;4.50;;;;;14.80;77.22;98635.41;5077049;28;45395;-69
2023/08/30 06:07:24;;;;;;;;;10.00;8.00;;;;;14.84;76.98;98638.72;5076669;28;45407;-69
2023/08/30 06:09:50;;;;;;;;;6.00;6.00;;;;;14.87;76.89;98635.88;5076644;27;45501;-69
2023/08/30 06:12:15;;;;;;;;;7.00;7.00;;;;;14.89;76.79;98636.63;5076511;28;45507;-69
2023/08/30 06:14:40;;;;;;;;;7.25;7.00;;;;;14.92;76.97;98637.25;5076184;28;45438;-69
2023/08/30 06:17:06;;;;;;;;;8.50;8.50;;;;;14.97;76.71;98640.47;5074955;28;45862;-69
2023/08/30 06:19:31;;;;;;;;;7.00;7.00;;;;;15.03;76.25;98644.53;5075219;28;45783;-69
2023/08/30 06:21:56;;;;;;;;;6.75;6.75;;;;;15.07;76.41;98642.53;5075463;28;47621;-69
2023/08/30 06:24:22;;;;;;;;;7.75;5.75;;;;;15.11;75.95;98644.00;5076663;28;45431;-69
2023/08/30 06:26:47;;;;;;;;;11.00;9.00;;;;;15.15;76.07;98651.69;5076690;28;45412;-69
2023/08/30 06:29:13;;;;;;;;;9.75;7.00;;;;;15.21;76.08;98655.75;5076326;28;45431;-69
2023/08/30 06:31:39;;;;;;;;;6.00;6.00;;;;;15.25;75.66;98654.56;5075096;28;45437;-69
2023/08/30 06:34:05;;;;;;;;;5.60;5.20;;;;;15.27;75.16;98653.53;5076094;28;45385;-69
2023/08/30 06:36:30;;;;;;;;;5.25;4.75;;;;;15.28;75.13;98652.56;5076509;28;45309;-69
2023/08/30 06:38:55;;;;;;;;;5.75;5.75;;;;;15.26;74.99;98664.25;5075903;28;45659;-70
2023/08/30 06:41:21;;;;;;;;;6.00;6.00;;;;;15.29;75.59;98659.59;5076297;28;46044;-69
2023/08/30 06:43:46;;;;;;;;;8.50;8.00;;;;;15.32;75.50;98656.72;5075659;28;45376;-69
2023/08/30 06:46:12;;;;;;;;;7.25;7.25;;;;;15.36;75.32;98652.06;5075722;28;45491;-69
2023/08/30 06:48:37;;;;;;;;;6.00;6.00;;;;;15.42;75.01;98667.56;5075009;28;45440;-69
2023/08/30 06:51:03;;;;;;;;;6.00;6.00;;;;;15.45;74.91;98662.06;5075814;28;45329;-69
2023/08/30 06:53:28;;;;;;;;;5.00;5.00;;;;;15.50;74.48;98665.28;5076222;28;45302;-69
2023/08/30 06:56:00;;;;;;;;;5.00;4.50;;;;;15.53;74.54;98666.88;5076018;28;45440;-69
2023/08/30 06:58:26;;;;;;;;;6.00;6.00;;;;;15.52;74.40;98662.50;5075777;28;45466;-69
2023/08/30 07:00:52;;;;;;;;;7.00;5.25;;;;;15.52;74.59;98663.38;5075528;28;45467;-70
2023/08/30 07:03:18;;;;;;;;;6.75;6.75;;;;;15.54;74.56;98664.13;5075743;28;45390;-69
2023/08/30 07:05:43;;;;;;;;;8.00;8.00;;;;;15.57;74.87;98663.94;5075840;28;45347;-70
2023/08/30 07:08:09;;;;;;;;;8.00;8.00;;;;;15.61;74.79;98660.09;5075495;28;45566;-70
2023/08/30 07:10:35;;;;;;;;;1.75;1.75;;;;;15.66;74.31;98658.00;5075758;28;46396;-69
2023/08/30 07:13:00;;;;;;;;;7.00;6.50;;;;;15.69;74.18;98655.13;5075233;28;45448;-69
2023/08/30 07:15:26;;;;;;;;;6.00;5.25;;;;;15.74;74.35;98660.16;5075070;28;45353;-69
2023/08/30 07:17:51;;;;;;;;;7.00;6.75;;;;;15.78;74.10;98660.75;5075651;28;45516;-69
2023/08/30 07:20:17;;;;;;;;;7.75;5.25;;;;;15.82;74.14;98651.63;5075438;28;45702;-69
2023/08/30 07:22:42;;;;;;;;;8.50;6.25;;;;;15.87;73.75;98660.16;5075548;28;45535;-69
2023/08/30 07:25:10;;;;;;;;;7.00;7.00;;;;;15.91;73.65;98658.97;5075383;28;45411;-70
2023/08/30 07:27:35;;;;;;;;;4.50;4.50;;;;;15.97;73.72;98659.38;5075243;28;45506;-69
2023/08/30 07:30:01;;;;;;;;;5.50;5.50;;;;;16.04;73.90;98660.69;5075200;28;45997;-70
2023/08/30 07:32:27;;;;;;;;;6.00;6.00;;;;;16.12;73.41;98653.97;5075361;28;45366;-69
2023/08/30 07:34:52;;;;;;;;;5.00;5.00;;;;;16.20;73.27;98662.25;5075014;27;45355;-69
2023/08/30 07:37:21;;;;;;;;;4.75;4.50;;;;;16.27;72.75;98655.53;5075064;28;45407;-70
2023/08/30 07:39:47;;;;;;;;;6.00;6.00;;;;;16.33;73.06;98660.44;5075396;28;46487;-70
2023/08/30 07:42:14;;;;;;;;;6.00;5.25;;;;;16.38;72.86;98661.81;5073328;28;45638;-71
2023/08/30 07:44:39;;;;;;;;;6.00;5.60;;;;;16.44;72.70;98660.50;5075033;28;45309;-70
2023/08/30 07:47:05;;;;;;;;;9.50;8.25;;;;;16.46;72.59;98653.28;5075500;28;45418;-70
2023/08/30 07:49:30;;;;;;;;;6.00;6.00;;;;;16.49;72.50;98660.19;5073685;28;46107;-70
2023/08/30 07:51:55;;;;;;;;;6.00;5.00;;;;;16.53;72.44;98662.53;5074493;28;45436;-70
2023/08/30 07:54:21;;;;;;;;;6.75;6.75;;;;;16.57;72.38;98652.53;5075388;28;45293;-70
2023/08/30 07:56:49;;;;;;;;;6.00;4.25;;;;;16.62;71.85;98656.53;5075495;28;45335;-71
2023/08/30 07:59:15;;;;;;;;;6.75;5.75;;;;;16.66;72.03;98665.19;5074999;28;45598;-69
2023/08/30 08:01:40;;;;;;;;;6.00;4.50;;;;;16.69;72.05;98655.19;5074999;28;45333;-69
2023/08/30 08:04:06;;;;;;;;;5.75;5.00;;;;;16.69;71.72;98656.97;5072977;28;45472;-69
2023/08/30 08:06:31;;;;;;;;;5.00;5.00;;;;;16.71;71.84;98655.91;5075424;28;45332;-70
2023/08/30 08:08:56;;;;;;;;;5.00;5.00;;;;;16.71;71.55;98655.06;5076602;28;46421;-71
2023/08/30 08:11:22;;;;;;;;;6.50;4.25;;;;;16.77;71.96;98667.91;5076336;28;45471;-69
2023/08/30 08:13:47;;;;;;;;;5.50;5.50;;;;;16.81;71.25;98658.75;5075160;28;45947;-70
2023/08/30 08:16:13;;;;;;;;;7.00;7.00;;;;;16.87;71.13;98660.97;5074183;28;45489;-70
2023/08/30 08:18:38;;;;;;;;;5.75;5.75;;;;;16.91;71.12;98659.78;5075169;28;45516;-70
2023/08/30 08:21:04;;;;;;;;;4.00;4.00;;;;;16.98;70.87;98661.03;5076413;28;45442;-70
2023/08/30 08:23:31;;;;;;;;;5.00;5.00;;;;;17.06;70.83;98658.66;5073897;28;45482;-70
2023/08/30 08:26:13;;;;;;;;;4.50;4.50;;;;;17.11;70.13;98658.31;5075155;28;45363;-70
2023/08/30 08:28:39;;;;;;;;;6.25;6.25;;;;;17.07;70.28;98654.19;5074788;28;46734;-69
2023/08/30 08:31:10;;;;;;;;;5.50;5.50;;;;;17.08;70.83;98654.06;5074746;28;45417;-70
2023/08/30 08:33:35;;;;;;;;;6.60;5.20;;;;;17.18;70.41;98653.38;5075470;28;45415;-69
2023/08/30 08:36:01;;;;;;;;;6.50;6.50;;;;;17.22;70.47;98657.53;5073942;28;45573;-69
2023/08/30 08:38:26;;;;;;;;;6.00;6.00;;;;;17.24;70.32;98656.44;5074471;28;45432;-69
2023/08/30 08:41:03;;;;;;;;;6.50;5.75;;;;;17.28;70.10;98649.91;5073827;28;45503;-69
2023/08/30 08:43:29;;;;;;;;;4.00;4.00;;;;;17.32;70.32;98655.84;5074059;28;45398;-69
2023/08/30 08:46:00;;;;;;;;;8.50;7.75;;;;;17.35;70.18;98652.97;5073353;28;45436;-70
2023/08/30 08:48:29;;;;;;;;;9.50;7.75;;;;;17.40;70.40;98653.47;5073987;28;46181;-70
2023/08/30 08:50:55;;;;;;;;;6.00;4.60;;;;;17.44;69.92;98652.25;5074321;28;45337;-69
2023/08/30 08:53:21;;;;;;;;;6.20;6.20;;;;;17.47;69.51;98646.72;5055925;28;45483;-70
2023/08/30 08:55:48;;;;;;;;;7.00;5.50;;;;;17.49;69.60;98654.59;5074372;28;45533;-70
2023/08/30 08:58:14;;;;;;;;;7.40;7.40;;;;;17.52;70.05;98647.22;5074158;28;46099;-70
2023/08/30 09:00:42;;;;;;;;;5.00;5.00;;;;;17.60;69.55;98652.81;5073963;28;45468;-69
2023/08/30 09:03:08;;;;;;;;;8.00;7.80;;;;;17.64;69.50;98653.44;5073919;28;45373;-70
2023/08/30 09:05:37;;;;;;;;;9.00;8.25;;;;;17.66;69.60;98646.19;5073493;28;45435;-69
2023/08/30 09:08:04;;;;;;;;;5.00;5.00;;;;;17.71;69.42;98641.38;5072042;28;46817;-69
2023/08/30 09:10:32;;;;;;;;;5.00;5.00;;;;;17.76;69.57;98640.03;5074105;28;45436;-69
2023/08/30 09:12:57;;;;;;;;;5.00;4.80;;;;;17.82;69.09;98638.72;5073803;27;45414;-70
2023/08/30 09:15:30;;;;;;;;;6.25;6.00;;;;;17.89;68.38;98644.44;5073425;28;45443;-70
2023/08/30 09:17:56;;;;;;;;;5.80;5.00;;;;;17.91;67.99;98632.69;5072396;28;47091;-69
2023/08/30 09:20:21;;;;;;;;;4.75;4.75;;;;;17.96;68.35;98630.47;5073613;28;45423;-70
2023/08/30 09:22:46;;;;;;;;;7.00;6.00;;;;;18.04;68.62;98635.22;5073492;28;45382;-70
2023/08/30 09:25:25;;;;;;;;;8.00;7.50;;;;;18.17;68.02;98637.78;5073408;28;45434;-70
2023/08/30 09:28:07;;;;;;;;;;;;;;;;;;;;;
2023/08/30 09:30:33;;;;;;;;;6.20;5.40;;;;;18.30;67.26;98638.50;5072663;28;73378;-71
2023/08/30 09:33:03;;;;;;;;;7.00;7.00;;;;;18.37;66.99;98632.56;5073551;28;45440;-71
2023/08/30 09:35:28;;;;;;;;;5.50;5.00;;;;;18.46;66.79;98630.97;5073882;28;45457;-70
2023/08/30 09:37:54;;;;;;;;;6.00;6.00;;;;;18.54;66.91;98620.53;5077104;28;45375;-70
2023/08/30 09:40:20;;;;;;;;;4.25;4.25;;;;;18.66;65.74;98627.59;5075752;28;45373;-70
2023/08/30 09:42:45;;;;;;;;;7.40;6.00;;;;;18.73;65.82;98623.47;5077301;28;45463;-71
2023/08/30 09:45:23;;;;;;;;;6.00;5.00;;;;;18.81;65.63;98620.16;5075011;28;46169;-70
2023/08/30 09:47:50;;;;;;;;;7.40;6.20;;;;;18.86;64.96;98609.09;5076710;28;46467;-69
2023/08/30 09:50:19;;;;;;;;;5.40;5.40;;;;;18.87;64.79;98614.31;5077030;28;45478;-70
2023/08/30 09:52:48;;;;;;;;;5.00;5.00;;;;;18.86;64.60;98612.63;5077089;28;45439;-70
2023/08/30 09:55:14;;;;;;;;;8.00;5.75;;;;;18.92;64.19;98606.78;5076275;28;45419;-70
2023/08/30 09:57:42;;;;;;;;;5.40;5.40;;;;;18.97;63.70;98601.03;5076849;28;46504;-70
2023/08/30 10:00:08;;;;;;;;;8.00;6.00;;;;;19.01;64.11;98595.31;5076332;28;45376;-70
2023/08/30 10:02:34;;;;;;;;;5.20;4.00;;;;;19.09;62.97;98592.88;5077260;28;45336;-69
2023/08/30 10:05:00;;;;;;;;;6.00;6.00;;;;;19.12;62.49;98594.41;5092016;27;45514;-69
2023/08/30 10:07:26;;;;;;;;;7.25;7.25;;;;;19.13;62.46;98596.97;5076420;28;46346;-70
2023/08/30 10:09:53;;;;;;;;;6.25;6.00;;;;;19.16;62.99;98586.03;5074886;28;45507;-70
2023/08/30 10:12:22;;;;;;;;;5.80;5.80;;;;;19.20;62.20;98593.78;5076555;27;45445;-70
2023/08/30 10:14:47;;;;;;;;;8.00;8.00;;;;;19.17;62.95;98593.06;5075761;27;45426;-69
2023/08/30 10:17:17;;;;;;;;;6.00;6.00;;;;;19.22;62.31;98584.66;5076085;28;46438;-69
2023/08/30 10:19:45;;;;;;;;;4.20;4.20;;;;;19.26;62.02;98583.44;5076332;28;45418;-69
2023/08/30 10:22:15;;;;;;;;;5.20;4.20;;;;;19.29;61.53;98577.81;5076761;28;45309;-70
2023/08/30 10:24:43;;;;;;;;;6.60;6.60;;;;;19.33;61.99;98586.44;5075168;28;45734;-70
2023/08/30 10:27:11;;;;;;;;;6.60;6.60;;;;;19.36;62.17;98575.47;5074500;28;47320;-70
2023/08/30 10:29:39;;;;;;;;;6.40;6.40;;;;;19.38;62.53;98566.34;5076252;28;45321;-69
2023/08/30 10:32:05;;;;;;;;;8.00;7.00;;;;;19.38;61.78;98565.50;5076607;27;45457;-69
2023/08/30 10:34:35;;;;;;;;;7.50;6.25;;;;;19.41;61.09;98560.75;5076171;27;45555;-70
2023/08/30 10:37:02;;;;;;;;;5.60;5.60;;;;;19.45;62.16;98555.97;5091935;27;45470;-70
2023/08/30 10:39:38;;;;;;;;;4.60;4.60;;;;;19.48;60.72;98561.91;5076494;28;45348;-70
2023/08/30 10:42:12;;;;;;;;;8.40;7.00;;;;;19.54;61.41;98555.22;5076325;28;45395;-70
2023/08/30 10:44:51;;;;;;;;;6.60;6.60;;;;;19.61;60.67;98555.53;5075994;28;45521;-70
2023/08/30 10:47:19;;;;;;;;;8.60;8.40;;;;;19.65;61.33;98555.16;5074544;28;45562;-69
2023/08/30 10:49:47;;;;;;;;;5.60;5.60;;;;;19.70;61.40;98544.06;5076091;28;45437;-70
2023/08/30 10:52:12;;;;;;;;;7.00;7.00;;;;;19.78;61.50;98541.56;5076322;28;45348;-69
2023/08/30 10:54:40;;;;;;;;;5.00;5.00;;;;;19.89;61.66;98540.63;5075666;28;45352;-70
2023/08/30 10:57:16;;;;;;;;;6.00;6.00;;;;;20.00;58.08;98551.25;5075781;28;45581;-69
2023/08/30 11:00:09;;;;;;;;;8.00;7.00;;;;;20.06;59.91;98538.19;5075375;28;45411;-69
2023/08/30 11:02:35;;;;;;;;;5.40;5.40;;;;;20.10;59.71;98526.22;5076210;28;45359;-69
2023/08/30 11:05:03;;;;;;;;;8.80;7.60;;;;;20.20;58.72;98535.13;5091033;27;45367;-69
2023/08/30 11:07:28;;;;;;;;;5.40;5.40;;;;;20.35;57.21;98537.41;5075243;28;45681;-70
2023/08/30 11:09:54;;;;;;;;;6.50;6.50;;;;;20.37;56.36;98536.31;5076093;28;45465;-69
2023/08/30 11:12:22;;;;;;;;;5.00;5.00;;;;;20.44;56.53;98534.78;5076319;28;45351;-69
2023/08/30 11:14:49;;;;;;;;;6.80;6.40;;;;;20.55;56.73;98515.94;5075016;28;45524;-70
2023/08/30 11:17:17;;;;;;;;;6.00;6.00;;;;;20.64;56.28;98522.25;5075093;28;45422;-69
2023/08/30 11:19:42;;;;;;;;;6.00;5.00;;;;;20.72;55.91;98533.16;5075549;28;45411;-69
2023/08/30 11:22:08;;;;;;;;;5.75;5.75;;;;;20.81;54.39;98537.66;5075983;28;45451;-69
2023/08/30 11:24:34;;;;;;;;;5.00;5.00;;;;;20.91;55.35;98526.97;5075963;27;45513;-69
2023/08/30 11:27:00;;;;;;;;;5.00;5.00;;;;;21.01;55.17;98546.56;5075676;28;45644;-69
2023/08/30 11:29:27;;;;;;;;;5.75;5.25;;;;;21.12;51.99;98548.22;5074728;28;45395;-69
2023/08/30 11:31:52;;;;;;;;;8.20;7.00;;;;;21.13;53.73;98523.97;5075584;28;45358;-69